createdAt,value
2022-11-18T00:02:36.466Z,88.41
2022-11-18T00:07:43.660Z,88.66
2022-11-18T00:13:06.782Z,88.79
2022-11-18T00:18:13.779Z,89.22
2022-11-18T00:23:21.379Z,88.89
2022-11-18T00:28:28.376Z,88.93
2022-11-18T00:33:37.310Z,88.43
2022-11-18T00:38:44.822Z,88.27
2022-11-18T00:43:52.083Z,88.37
2022-11-18T00:48:57.693Z,88.61
2022-11-18T00:54:04.988Z,88.49
2022-11-18T00:59:10.557Z,88.83
2022-11-18T01:04:18.059Z,88.93
2022-11-18T01:09:25.368Z,88.72
2022-11-18T01:14:32.559Z,88.33
2022-11-18T01:19:38.023Z,88.33
2022-11-18T01:24:44.941Z,87.82
2022-11-18T01:29:51.883Z,87.77
2022-11-18T01:34:58.889Z,87.89
2022-11-18T01:40:08.101Z,88.29
2022-11-18T01:45:26.129Z,87.82
2022-11-18T01:50:35.345Z,87.66
2022-11-18T01:55:48.587Z,87.28
2022-11-18T02:00:56.887Z,87.63
2022-11-18T02:06:06.289Z,87.62
2022-11-18T02:11:35.388Z,87.60
2022-11-18T02:16:53.319Z,87.70
2022-11-18T02:22:14.081Z,87.84
2022-11-18T02:27:57.598Z,87.62
2022-11-18T02:33:10.056Z,88.03
2022-11-18T02:38:25.428Z,88.04
2022-11-18T02:43:38.310Z,88.41
2022-11-18T02:48:49.363Z,88.53
2022-11-18T02:54:00.151Z,89.01
2022-11-18T02:59:07.858Z,88.96
2022-11-18T03:04:18.408Z,89.33
2022-11-18T03:09:30.005Z,89.87
2022-11-18T03:14:41.708Z,90.16
2022-11-18T03:20:04.577Z,90.14
2022-11-18T03:25:15.526Z,90.22
2022-11-18T03:30:25.533Z,90.47
2022-11-18T03:35:36.430Z,90.82
2022-11-18T03:40:50.276Z,90.82
2022-11-18T03:46:03.007Z,90.80
2022-11-18T03:51:15.630Z,91.11
2022-11-18T03:56:30.104Z,91.19
2022-11-18T04:01:42.320Z,91.39
2022-11-18T04:06:52.432Z,91.73
2022-11-18T04:12:05.444Z,91.72
2022-11-18T04:17:14.580Z,92.08
2022-11-18T04:22:22.169Z,92.08
2022-11-18T04:27:29.163Z,92.40
2022-11-18T04:32:36.688Z,92.14
2022-11-18T04:37:43.896Z,92.14
2022-11-18T04:42:49.677Z,92.17
2022-11-18T04:48:03.060Z,92.32
2022-11-18T04:53:10.694Z,92.44
2022-11-18T04:58:17.817Z,92.35
2022-11-18T05:03:25.716Z,91.97
2022-11-18T05:08:32.932Z,92.22
2022-11-18T05:13:38.478Z,92.32
2022-11-18T05:18:45.809Z,92.47
2022-11-18T05:23:53.492Z,92.05
2022-11-18T05:29:00.696Z,92.16
2022-11-18T05:34:07.838Z,92.29
2022-11-18T05:39:13.248Z,92.02
2022-11-18T05:44:20.748Z,92.32
2022-11-18T05:49:28.583Z,92.57
2022-11-18T05:54:35.666Z,92.68
2022-11-18T05:59:42.724Z,92.61
2022-11-18T06:04:54.463Z,92.58
2022-11-18T06:10:05.770Z,93.00
2022-11-18T06:15:17.539Z,93.05
2022-11-18T06:20:25.554Z,93.07
2022-11-18T06:25:34.012Z,93.24
2022-11-18T06:30:41.724Z,93.19
2022-11-18T06:35:49.649Z,93.39
2022-11-18T06:40:59.598Z,93.27
2022-11-18T06:46:26.053Z,93.34
2022-11-18T06:51:33.793Z,93.29
2022-11-18T06:56:40.970Z,93.40
2022-11-18T07:01:47.593Z,93.71
2022-11-18T07:06:55.354Z,93.82
2022-11-18T07:12:02.474Z,93.72
2022-11-18T07:17:09.589Z,93.40
2022-11-18T07:22:15.434Z,93.53
2022-11-18T07:27:22.330Z,93.51
2022-11-18T07:32:29.404Z,93.95
2022-11-18T07:37:36.202Z,93.75
2022-11-18T07:42:43.749Z,93.46
2022-11-18T07:47:53.059Z,93.50
2022-11-18T07:59:33.178Z,92.96
2022-11-18T08:04:39.056Z,92.75
2022-11-18T08:09:42.761Z,92.91
2022-11-18T08:14:46.226Z,92.87
2022-11-18T08:19:50.007Z,92.87
2022-11-18T08:24:53.703Z,92.66
2022-11-18T08:29:57.221Z,92.44
2022-11-18T08:35:00.727Z,92.51
2022-11-18T08:43:13.856Z,91.83
2022-11-18T08:48:21.192Z,92.08
2022-11-18T08:53:28.093Z,92.22
2022-11-18T08:58:35.312Z,92.66
2022-11-18T09:03:42.999Z,92.48
2022-11-18T09:08:50.454Z,92.65
2022-11-18T09:24:53.496Z,91.77
2022-11-18T09:29:58.955Z,91.40
2022-11-18T09:35:06.867Z,91.27
2022-11-18T09:40:20.668Z,89.98
2022-11-18T09:45:31.979Z,89.73
2022-11-18T09:50:50.159Z,89.37
2022-11-18T09:55:58.879Z,90.12
2022-11-18T10:01:12.063Z,90.75
2022-11-18T10:06:25.366Z,90.56
2022-11-18T10:11:45.166Z,90.54
2022-11-18T10:17:06.194Z,90.55
2022-11-18T10:22:27.643Z,89.95
2022-11-18T10:27:42.677Z,90.47
2022-11-18T10:33:01.618Z,90.10
2022-11-18T10:38:18.660Z,90.00
2022-11-18T10:43:37.895Z,89.88
2022-11-18T10:48:45.230Z,89.15
2022-11-18T10:53:52.601Z,88.71
2022-11-18T10:58:59.797Z,88.82
2022-11-18T11:04:06.406Z,89.26
2022-11-18T11:09:27.116Z,88.98
2022-11-18T11:14:40.868Z,88.38
2022-11-18T11:19:57.986Z,88.68
2022-11-18T11:25:07.874Z,88.71
2022-11-18T11:30:21.768Z,89.28
2022-11-18T11:35:34.442Z,88.35
2022-11-18T11:40:46.894Z,88.18
2022-11-18T11:46:11.281Z,88.26
2022-11-18T11:51:27.491Z,88.26
2022-11-18T11:56:38.974Z,88.36
2022-11-18T12:02:00.963Z,88.75
2022-11-18T12:07:14.945Z,88.92
2022-11-18T12:12:38.572Z,89.51
2022-11-18T12:17:54.820Z,90.09
2022-11-18T12:23:20.804Z,90.02
2022-11-18T12:28:30.681Z,89.87
2022-11-18T12:33:46.016Z,89.87
2022-11-18T12:38:53.674Z,90.02
2022-11-18T12:44:23.890Z,89.99
2022-11-18T12:50:11.681Z,89.64
2022-11-18T12:55:22.995Z,89.49
2022-11-18T13:00:52.764Z,89.53
2022-11-18T13:06:07.556Z,89.15
2022-11-18T13:11:37.497Z,88.45
2022-11-18T13:17:04.824Z,87.86
2022-11-18T13:22:38.687Z,87.87
2022-11-18T13:27:53.702Z,87.74
2022-11-18T13:33:02.587Z,86.63
2022-11-18T13:38:27.416Z,86.47
2022-11-18T13:43:37.220Z,85.62
2022-11-18T13:48:52.881Z,86.27
2022-11-18T13:54:00.409Z,85.62
2022-11-18T13:59:17.399Z,84.50
2022-11-18T14:04:27.797Z,83.81
2022-11-18T14:09:34.859Z,83.43
2022-11-18T14:14:43.289Z,83.18
2022-11-18T14:19:52.576Z,83.57
2022-11-18T14:25:01.579Z,83.71
2022-11-18T14:30:32.582Z,83.51
2022-11-18T14:35:39.880Z,82.93
2022-11-18T14:40:47.082Z,83.59
2022-11-18T14:45:53.558Z,82.42
2022-11-18T14:51:00.961Z,82.45
2022-11-18T14:56:17.192Z,81.63
2022-11-18T15:01:30.311Z,81.71
2022-11-18T15:06:38.393Z,81.79
2022-11-18T15:11:45.958Z,81.14
2022-11-18T15:16:53.308Z,80.69
2022-11-18T15:22:00.344Z,81.08
2022-11-18T15:27:07.514Z,80.79
2022-11-18T15:32:14.745Z,81.27
2022-11-18T15:37:21.949Z,79.95
2022-11-18T15:42:27.512Z,79.99
2022-11-18T15:47:34.916Z,80.05
2022-11-18T15:52:41.872Z,80.47
2022-11-18T15:57:49.325Z,80.21
2022-11-18T16:02:56.309Z,78.90
2022-11-18T16:08:03.417Z,80.36
2022-11-18T16:13:10.503Z,80.64
2022-11-18T16:18:18.202Z,80.91
2022-11-18T16:23:25.201Z,81.23
2022-11-18T16:28:32.398Z,80.83
2022-11-18T16:33:39.543Z,79.83
2022-11-18T16:38:46.485Z,79.46
2022-11-18T16:43:53.907Z,79.69
2022-11-18T16:49:01.241Z,79.72
2022-11-18T16:54:16.951Z,78.95
2022-11-18T16:59:25.431Z,78.88
2022-11-18T17:04:35.361Z,79.01
2022-11-18T17:09:42.802Z,78.87
2022-11-18T17:14:49.895Z,79.22
2022-11-18T17:19:56.883Z,78.90
2022-11-18T17:25:05.581Z,79.60
2022-11-18T17:30:15.365Z,78.84
2022-11-18T17:35:22.901Z,77.58
2022-11-18T17:40:30.551Z,78.12
2022-11-18T17:45:41.508Z,76.09
2022-11-18T17:50:48.851Z,77.08
2022-11-18T17:56:00.834Z,78.26
2022-11-18T18:01:11.833Z,78.58
2022-11-18T18:06:19.507Z,78.94
2022-11-18T18:11:27.428Z,77.98
2022-11-18T18:16:35.255Z,77.82
2022-11-18T18:21:42.529Z,77.76
2022-11-18T18:26:47.884Z,78.00
2022-11-18T18:31:55.202Z,74.51
2022-11-18T18:37:02.413Z,75.12
2022-11-18T18:42:08.085Z,75.08
2022-11-18T18:47:15.464Z,74.19
2022-11-18T18:52:22.567Z,74.04
2022-11-18T18:57:31.371Z,74.35
2022-11-18T19:02:38.480Z,74.17
2022-11-18T19:07:45.985Z,74.30
2022-11-18T19:12:53.360Z,74.59
2022-11-18T19:18:00.297Z,73.74
2022-11-18T19:23:10.645Z,74.97
2022-11-18T19:28:17.868Z,74.78
2022-11-18T19:33:23.586Z,75.14
2022-11-18T19:38:31.547Z,75.37
2022-11-18T19:43:38.868Z,74.83
2022-11-18T19:48:51.384Z,75.23
2022-11-18T19:59:54.004Z,75.37
2022-11-18T20:05:15.536Z,74.57
2022-11-18T20:10:19.460Z,75.35
2022-11-18T20:15:23.390Z,75.36
2022-11-18T20:20:27.208Z,75.37
2022-11-18T20:25:30.835Z,75.25
2022-11-18T20:30:34.333Z,75.51
2022-11-18T20:35:37.952Z,74.62
2022-11-18T20:40:41.559Z,74.05
2022-11-18T20:45:54.260Z,74.18
2022-11-18T20:50:57.813Z,74.07
2022-11-18T20:56:01.345Z,73.53
2022-11-18T21:01:13.174Z,73.32
2022-11-18T21:06:17.207Z,73.07
2022-11-18T21:11:21.287Z,72.89
2022-11-18T21:16:26.781Z,71.50
2022-11-18T21:21:47.602Z,70.01
2022-11-18T21:26:54.049Z,69.33
2022-11-18T21:32:00.217Z,70.21
2022-11-18T21:37:04.960Z,71.67
2022-11-18T21:42:08.681Z,71.96
2022-11-18T21:47:12.324Z,72.96
2022-11-18T21:52:16.222Z,73.39
2022-11-18T21:57:20.166Z,74.00
2022-11-18T22:02:25.030Z,74.30
2022-11-18T22:07:28.647Z,75.15
2022-11-18T22:12:32.414Z,75.56
2022-11-18T22:17:36.029Z,76.15
2022-11-18T22:22:40.071Z,76.34
2022-11-18T22:27:43.742Z,76.83
2022-11-18T22:32:47.390Z,76.82
2022-11-18T22:37:51.337Z,76.63
2022-11-18T22:42:54.767Z,76.59
2022-11-18T22:47:58.243Z,76.65
2022-11-18T22:53:01.773Z,77.34
2022-11-18T22:58:05.301Z,77.18
2022-11-18T23:03:09.499Z,77.42
2022-11-18T23:08:13.312Z,77.25
2022-11-18T23:13:35.680Z,77.02
2022-11-18T23:18:39.396Z,77.54
2022-11-18T23:23:43.927Z,77.49
2022-11-18T23:28:47.908Z,77.63
2022-11-18T23:33:51.755Z,77.90
2022-11-18T23:38:55.407Z,78.29
2022-11-18T23:43:59.009Z,78.16
2022-11-18T23:49:02.524Z,78.24
2022-11-18T23:54:06.815Z,78.70
2022-11-18T23:59:11.177Z,78.07
